createdAt,value
2018-06-12T00:00:14.819Z,86.90
2018-06-12T00:02:55.326Z,87.20
2018-06-12T00:05:35.827Z,86.80
2018-06-12T00:08:16.188Z,86.60
2018-06-12T00:10:56.560Z,87.10
2018-06-12T00:13:37.260Z,85.60
2018-06-12T00:16:18.036Z,88.70
2018-06-12T00:18:58.897Z,85.80
2018-06-12T00:24:20.111Z,83.80
2018-06-12T00:27:00.573Z,82.60
2018-06-12T00:29:41.277Z,85.80
2018-06-12T00:32:22.214Z,86.00
2018-06-12T00:35:02.566Z,82.50
2018-06-12T00:37:43.224Z,82.50
2018-06-12T00:40:25.421Z,85.40
2018-06-12T00:43:06.251Z,87.40
2018-06-12T00:45:46.660Z,84.20
2018-06-12T00:48:27.003Z,84.70
2018-06-12T00:51:07.667Z,85.30
2018-06-12T00:53:48.141Z,83.70
2018-06-12T00:56:45.723Z,82.60
2018-06-12T00:59:26.516Z,83.80
2018-06-12T01:02:07.742Z,85.50
2018-06-12T01:04:48.184Z,86.00
2018-06-12T01:07:28.677Z,84.70
2018-06-12T01:10:09.246Z,87.00
2018-06-12T01:12:49.934Z,85.40
2018-06-12T01:15:30.755Z,85.50
2018-06-12T01:18:12.022Z,85.20
2018-06-12T01:20:52.379Z,84.60
2018-06-12T01:23:33.054Z,85.20
2018-06-12T01:26:13.562Z,85.30
2018-06-12T01:28:54.296Z,87.60
2018-06-12T01:31:34.791Z,86.70
2018-06-12T01:34:15.829Z,87.10
2018-06-12T01:36:56.341Z,87.30
2018-06-12T01:39:36.656Z,87.80
2018-06-12T01:42:17.642Z,85.30
2018-06-12T01:44:58.452Z,83.70
2018-06-12T01:47:38.788Z,86.70
2018-06-12T01:50:19.527Z,87.50
2018-06-12T01:53:00.272Z,89.10
2018-06-12T01:55:41.776Z,89.60
2018-06-12T01:58:22.169Z,85.80
2018-06-12T02:01:02.516Z,84.90
2018-06-12T02:03:43.488Z,87.80
2018-06-12T02:09:07.150Z,88.20
2018-06-12T02:11:47.525Z,90.40
2018-06-12T02:14:28.294Z,89.60
2018-06-12T02:17:08.965Z,90.80
2018-06-12T02:19:49.465Z,90.50
2018-06-12T02:22:30.118Z,91.40
2018-06-12T02:25:10.683Z,91.20
2018-06-12T02:27:51.031Z,90.50
2018-06-12T02:30:31.770Z,91.00
2018-06-12T02:33:12.181Z,90.60
2018-06-12T02:35:52.741Z,90.70
2018-06-12T02:38:33.513Z,91.00
2018-06-12T02:41:14.028Z,90.50
2018-06-12T02:43:54.764Z,89.90
2018-06-12T02:46:35.494Z,89.90
2018-06-12T02:49:16.081Z,90.00
2018-06-12T02:51:56.754Z,90.00
2018-06-12T02:54:37.122Z,90.30
2018-06-12T02:57:17.885Z,89.90
2018-06-12T02:59:58.774Z,90.00
2018-06-12T03:02:39.107Z,89.30
2018-06-12T03:05:19.466Z,90.50
2018-06-12T03:08:00.640Z,90.30
2018-06-12T03:10:41.105Z,88.20
2018-06-12T03:13:21.813Z,89.70
2018-06-12T03:16:02.201Z,89.50
2018-06-12T03:18:42.550Z,89.20
2018-06-12T03:21:23.371Z,90.10
2018-06-12T03:24:03.845Z,90.20
2018-06-12T03:26:44.196Z,90.10
2018-06-12T03:29:24.575Z,89.00
2018-06-12T03:32:08.844Z,89.50
2018-06-12T03:34:49.203Z,89.40
2018-06-12T03:37:30.019Z,88.70
2018-06-12T03:40:10.560Z,89.20
2018-06-12T03:42:51.395Z,89.10
2018-06-12T03:45:31.930Z,88.60
2018-06-12T03:48:12.741Z,89.10
2018-06-12T03:50:53.160Z,88.30
2018-06-12T03:53:34.393Z,90.20
2018-06-12T03:56:14.904Z,88.60
2018-06-12T03:58:55.597Z,87.80
2018-06-12T04:01:36.426Z,88.10
2018-06-12T04:04:17.299Z,88.20
2018-06-12T04:06:58.086Z,87.90
2018-06-12T04:09:38.605Z,88.70
2018-06-12T04:14:59.327Z,87.90
2018-06-12T04:17:40.466Z,88.10
2018-06-12T04:20:21.323Z,86.60
2018-06-12T04:23:01.876Z,87.50
2018-06-12T04:25:42.565Z,87.90
2018-06-12T04:28:23.574Z,87.10
2018-06-12T04:33:44.671Z,87.00
2018-06-12T04:36:25.042Z,86.40
2018-06-12T04:39:07.693Z,86.60
2018-06-12T04:41:48.176Z,86.60
2018-06-12T04:44:28.580Z,85.00
2018-06-12T04:47:09.079Z,85.90
2018-06-12T04:49:49.436Z,84.80
2018-06-12T04:52:30.094Z,85.20
2018-06-12T04:55:10.769Z,85.40
2018-06-12T04:57:51.136Z,84.20
2018-06-12T05:00:32.013Z,85.10
2018-06-12T05:03:13.156Z,85.50
2018-06-12T05:05:53.528Z,83.90
2018-06-12T05:08:40.192Z,83.80
2018-06-12T05:11:20.771Z,84.10
2018-06-12T05:14:01.323Z,83.10
2018-06-12T05:16:42.455Z,83.50
2018-06-12T05:19:23.711Z,83.50
2018-06-12T05:22:04.048Z,82.80
2018-06-12T05:24:44.675Z,83.00
2018-06-12T05:27:25.113Z,82.80
2018-06-12T05:30:05.972Z,82.50
2018-06-12T05:32:46.466Z,82.40
2018-06-12T05:35:27.296Z,83.00
2018-06-12T05:38:07.787Z,81.30
2018-06-12T05:40:48.305Z,81.70
2018-06-12T05:43:29.025Z,82.10
2018-06-12T05:46:09.859Z,81.90
2018-06-12T05:48:50.352Z,82.60
2018-06-12T05:51:31.112Z,84.00
2018-06-12T05:54:12.201Z,84.10
2018-06-12T05:56:52.569Z,83.70
2018-06-12T05:59:33.185Z,82.00
2018-06-12T06:02:14.148Z,82.90
2018-06-12T06:04:54.780Z,82.10
2018-06-12T06:07:35.265Z,82.10
2018-06-12T06:10:15.768Z,81.80
2018-06-12T06:12:56.420Z,83.30
2018-06-12T06:15:37.229Z,83.10
2018-06-12T06:18:17.856Z,82.40
2018-06-12T06:20:58.659Z,81.60
2018-06-12T06:23:39.492Z,80.80
2018-06-12T06:26:19.901Z,81.30
2018-06-12T06:29:00.968Z,80.80
2018-06-12T06:31:41.749Z,80.80
2018-06-12T06:34:22.501Z,80.90
2018-06-12T06:37:03.172Z,81.70
2018-06-12T06:39:44.028Z,81.00
2018-06-12T06:42:24.779Z,80.40
2018-06-12T06:47:46.312Z,78.20
2018-06-12T06:50:26.791Z,76.90
2018-06-12T06:53:07.852Z,77.40
2018-06-12T06:55:48.317Z,78.90
2018-06-12T06:58:28.820Z,76.00
2018-06-12T07:01:09.332Z,76.30
2018-06-12T07:03:49.937Z,76.70
2018-06-12T07:06:31.017Z,76.20
2018-06-12T07:09:12.169Z,73.90
2018-06-12T07:11:52.958Z,72.80
2018-06-12T07:14:33.670Z,71.60
2018-06-12T07:17:14.034Z,71.90
2018-06-12T07:19:54.463Z,72.00
2018-06-12T07:22:35.132Z,71.70
2018-06-12T07:25:15.661Z,72.10
2018-06-12T07:27:56.322Z,71.20
2018-06-12T07:30:37.383Z,70.10
2018-06-12T07:33:17.833Z,70.70
2018-06-12T07:35:58.932Z,70.40
2018-06-12T07:38:40.230Z,70.40
2018-06-12T07:41:21.033Z,71.20
2018-06-12T07:44:01.833Z,71.80
2018-06-12T07:49:22.672Z,71.90
2018-06-12T07:52:03.095Z,71.10
2018-06-12T07:54:43.561Z,69.60
2018-06-12T07:57:24.117Z,68.10
2018-06-12T08:00:04.580Z,67.10
2018-06-12T08:02:45.061Z,67.60
2018-06-12T08:05:25.857Z,66.60
2018-06-12T08:08:07.006Z,66.00
2018-06-12T08:10:48.148Z,65.40
2018-06-12T08:13:28.616Z,65.80
2018-06-12T08:16:09.096Z,64.30
2018-06-12T08:18:49.517Z,64.40
2018-06-12T08:21:30.271Z,64.90
2018-06-12T08:24:11.048Z,65.40
2018-06-12T08:26:51.695Z,66.10
2018-06-12T08:32:13.009Z,66.60
2018-06-12T08:34:53.440Z,65.70
2018-06-12T08:37:34.116Z,63.90
2018-06-12T08:40:15.090Z,65.00
2018-06-12T08:42:56.077Z,66.00
2018-06-12T08:45:36.602Z,63.90
2018-06-12T08:48:17.289Z,61.80
2018-06-12T08:50:57.887Z,62.90
2018-06-12T08:53:39.145Z,62.70
2018-06-12T08:56:20.077Z,61.80
2018-06-12T08:59:00.659Z,63.60
2018-06-12T09:01:41.024Z,64.00
2018-06-12T09:04:21.693Z,63.00
2018-06-12T09:07:02.053Z,62.60
2018-06-12T09:09:42.575Z,61.10
2018-06-12T09:12:23.822Z,59.80
2018-06-12T09:15:04.568Z,58.10
2018-06-12T09:17:45.298Z,59.40
2018-06-12T09:20:25.964Z,58.60
2018-06-12T09:23:06.787Z,58.20
2018-06-12T09:25:47.488Z,58.70
2018-06-12T09:28:29.342Z,60.40
2018-06-12T09:31:10.135Z,59.30
2018-06-12T09:33:50.485Z,58.10
2018-06-12T09:36:35.582Z,58.00
2018-06-12T09:39:17.480Z,57.60
2018-06-12T09:41:58.166Z,57.60
2018-06-12T09:44:39.324Z,58.70
2018-06-12T09:47:19.657Z,56.70
2018-06-12T09:49:59.987Z,54.80
2018-06-12T09:52:40.744Z,56.00
2018-06-12T09:55:21.666Z,56.00
2018-06-12T09:58:02.517Z,55.70
2018-06-12T10:00:48.211Z,57.40
2018-06-12T10:03:28.652Z,59.40
2018-06-12T10:06:09.104Z,59.20
2018-06-12T10:08:49.856Z,57.90
2018-06-12T10:11:31.153Z,58.20
2018-06-12T10:14:12.029Z,59.60
2018-06-12T10:16:52.847Z,59.40
2018-06-12T10:19:33.544Z,57.90
2018-06-12T10:22:14.197Z,57.80
2018-06-12T10:24:54.578Z,57.30
2018-06-12T10:27:35.119Z,56.40
2018-06-12T10:30:15.620Z,56.10
2018-06-12T10:32:56.650Z,55.40
2018-06-12T10:35:37.252Z,54.80
2018-06-12T10:38:17.974Z,54.20
2018-06-12T10:40:58.503Z,56.90
2018-06-12T10:43:39.081Z,57.00
2018-06-12T10:46:19.768Z,55.40
2018-06-12T10:49:00.240Z,57.30
2018-06-12T10:51:40.776Z,57.80
2018-06-12T10:54:21.249Z,59.80
2018-06-12T10:57:01.577Z,56.60
2018-06-12T10:59:42.251Z,55.10
2018-06-12T11:02:22.941Z,55.00
2018-06-12T11:05:03.947Z,55.50
2018-06-12T11:10:25.708Z,55.90
2018-06-12T11:13:06.732Z,56.00
2018-06-12T11:18:27.421Z,53.10
2018-06-12T11:21:07.815Z,53.70
2018-06-12T11:23:48.516Z,51.20
2018-06-12T11:26:29.356Z,48.30
2018-06-12T11:29:10.155Z,48.20
2018-06-12T11:31:50.757Z,49.80
2018-06-12T11:34:31.393Z,46.90
2018-06-12T11:37:12.426Z,45.90
2018-06-12T11:39:52.938Z,45.50
2018-06-12T11:42:33.651Z,47.20
2018-06-12T11:45:14.699Z,43.10
2018-06-12T11:47:55.079Z,42.10
2018-06-12T11:50:36.058Z,43.00
2018-06-12T11:53:17.235Z,43.00
2018-06-12T11:55:59.373Z,44.50
2018-06-12T11:58:40.418Z,47.30
2018-06-12T12:01:20.970Z,46.70
2018-06-12T12:04:01.354Z,45.00
2018-06-12T12:06:41.696Z,47.80
2018-06-12T12:09:22.948Z,45.30
2018-06-12T12:12:04.020Z,42.10
2018-06-12T12:14:44.876Z,40.10
2018-06-12T12:17:25.769Z,42.60
2018-06-12T12:20:06.330Z,42.90
2018-06-12T12:22:46.865Z,44.00
2018-06-12T12:25:27.776Z,39.20
2018-06-12T12:28:08.544Z,40.10
2018-06-12T12:30:49.012Z,38.40
2018-06-12T12:33:29.759Z,37.80
2018-06-12T12:36:10.189Z,40.20
2018-06-12T12:38:50.891Z,41.10
2018-06-12T12:44:11.559Z,43.00
2018-06-12T12:46:52.088Z,42.10
2018-06-12T12:49:32.593Z,42.90
2018-06-12T12:54:53.244Z,44.70
2018-06-12T12:57:33.769Z,43.80
2018-06-12T13:00:14.744Z,42.00
2018-06-12T13:02:55.465Z,40.90
2018-06-12T13:05:36.204Z,40.40
2018-06-12T13:08:16.729Z,42.80
2018-06-12T13:10:57.405Z,44.40
2018-06-12T13:13:37.761Z,43.80
2018-06-12T13:16:18.080Z,44.80
2018-06-12T13:18:58.860Z,46.80
2018-06-12T13:21:39.156Z,46.60
2018-06-12T13:24:20.205Z,48.10
2018-06-12T13:27:00.679Z,46.20
2018-06-12T13:29:41.307Z,45.10
2018-06-12T13:32:22.081Z,45.70
2018-06-12T13:35:02.404Z,46.60
2018-06-12T13:37:43.421Z,47.30
2018-06-12T13:40:24.222Z,47.50
2018-06-12T13:43:04.805Z,46.70
2018-06-12T13:45:45.584Z,47.60
2018-06-12T13:48:26.327Z,48.20
2018-06-12T13:51:07.412Z,46.70
2018-06-12T13:53:48.071Z,46.00
2018-06-12T13:56:28.854Z,46.70
2018-06-12T13:59:09.713Z,46.70
2018-06-12T14:04:30.601Z,45.90
2018-06-12T14:07:11.202Z,45.40
2018-06-12T14:09:51.989Z,42.20
2018-06-12T14:12:32.663Z,41.50
2018-06-12T14:15:13.362Z,41.00
2018-06-12T14:17:54.609Z,41.20
2018-06-12T14:20:35.273Z,44.40
2018-06-12T14:23:16.311Z,43.90
2018-06-12T14:25:56.749Z,42.50
2018-06-12T14:28:37.984Z,44.00
2018-06-12T14:31:18.797Z,43.10
2018-06-12T14:33:59.292Z,43.40
2018-06-12T14:36:37.068Z,44.00
2018-06-12T14:39:13.676Z,44.10
2018-06-12T14:41:51.560Z,44.20
2018-06-12T14:47:06.045Z,42.00
2018-06-12T14:49:45.320Z,43.20
2018-06-12T14:52:22.845Z,41.50
2018-06-12T14:54:59.293Z,43.30
2018-06-12T14:57:36.857Z,42.30
2018-06-12T15:00:14.206Z,42.10
2018-06-12T15:02:52.160Z,44.20
2018-06-12T15:05:28.600Z,44.20
2018-06-12T15:08:05.464Z,46.60
2018-06-12T15:10:43.351Z,45.50
2018-06-12T15:13:20.637Z,46.20
2018-06-12T15:15:58.941Z,47.50
2018-06-12T15:18:35.546Z,47.70
2018-06-12T15:21:11.904Z,46.50
2018-06-12T15:23:49.410Z,45.90
2018-06-12T15:26:26.754Z,44.60
2018-06-12T15:29:04.769Z,45.00
2018-06-12T15:31:42.582Z,44.20
2018-06-12T15:34:19.121Z,45.00
2018-06-12T15:36:56.197Z,45.00
2018-06-12T15:39:32.592Z,45.50
2018-06-12T15:42:09.485Z,45.10
2018-06-12T15:44:45.735Z,44.70
2018-06-12T15:47:23.843Z,46.60
2018-06-12T15:50:00.840Z,45.50
2018-06-12T15:52:38.553Z,46.70
2018-06-12T15:55:16.057Z,47.30
2018-06-12T15:57:52.625Z,47.60
2018-06-12T16:00:30.353Z,48.40
2018-06-12T16:03:07.912Z,48.20
2018-06-12T16:05:45.973Z,47.80
2018-06-12T16:08:23.961Z,49.00
2018-06-12T16:11:02.202Z,49.00
2018-06-12T16:13:39.192Z,49.80
2018-06-12T16:16:16.118Z,48.70
2018-06-12T16:18:53.448Z,47.70
2018-06-12T16:21:29.436Z,48.60
2018-06-12T16:24:07.420Z,48.50
2018-06-12T16:26:44.487Z,48.70
2018-06-12T16:29:22.241Z,48.60
2018-06-12T16:31:59.672Z,48.00
2018-06-12T16:34:36.084Z,47.80
2018-06-12T16:37:12.888Z,47.60
2018-06-12T16:39:48.942Z,46.80
2018-06-12T16:42:26.764Z,47.60
2018-06-12T16:45:04.704Z,47.80
2018-06-12T16:47:42.069Z,48.40
2018-06-12T16:50:19.205Z,47.60
2018-06-12T16:52:55.725Z,47.50
2018-06-12T16:55:32.243Z,46.20
2018-06-12T16:58:08.736Z,45.70
2018-06-12T17:00:45.547Z,46.60
2018-06-12T17:03:22.284Z,45.90
2018-06-12T17:05:58.974Z,46.20
2018-06-12T17:08:36.207Z,46.80
2018-06-12T17:11:13.466Z,46.70
2018-06-12T17:13:50.630Z,47.60
2018-06-12T17:16:27.699Z,47.50
2018-06-12T17:19:03.971Z,48.60
2018-06-12T17:21:41.336Z,48.10
2018-06-12T17:24:19.866Z,49.00
2018-06-12T17:26:57.412Z,49.60
2018-06-12T17:29:33.813Z,49.20
2018-06-12T17:32:10.427Z,50.80
2018-06-12T17:34:48.137Z,49.70
2018-06-12T17:40:01.899Z,49.90
2018-06-12T17:42:40.250Z,50.70
2018-06-12T17:45:16.094Z,50.60
2018-06-12T17:47:53.925Z,50.90
2018-06-12T17:50:31.309Z,51.30
2018-06-12T17:53:08.945Z,52.00
2018-06-12T17:55:45.108Z,52.50
2018-06-12T17:58:21.413Z,53.20
2018-06-12T18:00:58.669Z,53.10
2018-06-12T18:03:35.953Z,53.00
2018-06-12T18:06:11.797Z,53.90
2018-06-12T18:08:48.798Z,54.90
2018-06-12T18:11:25.515Z,55.10
2018-06-12T18:14:01.848Z,55.40
2018-06-12T18:16:39.389Z,54.80
2018-06-12T18:19:18.101Z,55.90
2018-06-12T18:21:54.600Z,55.90
2018-06-12T18:24:31.248Z,55.30
2018-06-12T18:29:46.436Z,55.50
2018-06-12T18:32:24.244Z,55.20
2018-06-12T18:35:00.603Z,54.80
2018-06-12T18:37:36.235Z,55.20
2018-06-12T18:40:13.870Z,55.00
2018-06-12T18:42:50.753Z,55.10
2018-06-12T18:45:26.827Z,55.60
2018-06-12T18:48:03.637Z,55.80
2018-06-12T18:50:41.054Z,55.70
2018-06-12T18:53:17.088Z,55.80
2018-06-12T18:55:55.499Z,55.80
2018-06-12T18:58:31.907Z,56.20
2018-06-12T19:01:08.390Z,56.40
2018-06-12T19:03:44.725Z,56.00
2018-06-12T19:06:23.048Z,57.10
2018-06-12T19:09:00.774Z,56.50
2018-06-12T19:11:37.229Z,56.80
2018-06-12T19:14:13.710Z,56.90
2018-06-12T19:16:49.730Z,57.00
2018-06-12T19:19:25.818Z,57.50
2018-06-12T19:22:05.531Z,57.70
2018-06-12T19:24:41.476Z,57.00
2018-06-12T19:27:18.179Z,57.10
2018-06-12T19:29:55.787Z,57.00
2018-06-12T19:32:31.818Z,56.90
2018-06-12T19:35:09.280Z,57.10
2018-06-12T19:37:46.168Z,57.50
2018-06-12T19:40:22.290Z,56.90
2018-06-12T19:42:58.788Z,57.10
2018-06-12T19:45:35.417Z,57.50
2018-06-12T19:48:12.165Z,58.10
2018-06-12T19:50:48.555Z,57.40
2018-06-12T19:53:24.662Z,58.10
2018-06-12T19:58:37.787Z,57.70
2018-06-12T20:01:19.860Z,58.70
2018-06-12T20:03:56.233Z,56.90
2018-06-12T20:06:33.410Z,56.90
2018-06-12T20:09:09.893Z,57.00
2018-06-12T20:11:46.548Z,56.40
2018-06-12T20:14:23.220Z,57.10
2018-06-12T20:16:59.303Z,56.80
2018-06-12T20:19:36.980Z,56.60
2018-06-12T20:22:13.355Z,56.80
2018-06-12T20:24:48.984Z,57.10
2018-06-12T20:27:27.311Z,57.10
2018-06-12T20:30:03.897Z,57.40
2018-06-12T20:32:41.682Z,57.50
2018-06-12T20:35:18.039Z,57.30
2018-06-12T20:37:54.022Z,57.10
2018-06-12T20:40:31.643Z,57.10
2018-06-12T20:43:08.122Z,57.70
2018-06-12T20:45:44.650Z,58.80
2018-06-12T20:48:22.090Z,58.50
2018-06-12T20:51:00.264Z,57.80
2018-06-12T20:53:36.602Z,58.10
2018-06-12T20:56:12.414Z,58.40
2018-06-12T20:58:49.194Z,58.00
2018-06-12T21:01:25.434Z,58.30
2018-06-12T21:04:01.569Z,58.30
2018-06-12T21:06:38.469Z,58.70
2018-06-12T21:09:15.811Z,59.00
2018-06-12T21:11:52.843Z,58.50
2018-06-12T21:14:28.784Z,58.60
2018-06-12T21:17:05.929Z,58.80
2018-06-12T21:19:41.784Z,58.90
2018-06-12T21:22:19.560Z,59.20
2018-06-12T21:24:55.461Z,58.80
2018-06-12T21:27:31.488Z,58.80
2018-06-12T21:30:07.900Z,59.10
2018-06-12T21:32:43.644Z,59.50
2018-06-12T21:35:20.335Z,59.20
2018-06-12T21:37:57.023Z,59.30
2018-06-12T21:40:35.037Z,59.10
2018-06-12T21:43:11.136Z,59.00
2018-06-12T21:45:47.664Z,59.00
2018-06-12T21:48:23.751Z,59.10
2018-06-12T21:50:59.983Z,58.70
2018-06-12T21:53:36.206Z,59.00
2018-06-12T21:56:12.921Z,58.80
2018-06-12T21:58:50.319Z,58.70
2018-06-12T22:01:26.501Z,58.70
2018-06-12T22:04:03.157Z,59.10
2018-06-12T22:06:40.496Z,59.20
2018-06-12T22:09:17.750Z,59.10
2018-06-12T22:11:54.048Z,59.20
2018-06-12T22:14:30.643Z,59.00
2018-06-12T22:17:07.134Z,59.60
2018-06-12T22:19:43.895Z,60.30
2018-06-12T22:22:20.852Z,60.20
2018-06-12T22:24:57.504Z,60.10
2018-06-12T22:27:33.799Z,60.80
2018-06-12T22:30:10.110Z,60.30
2018-06-12T22:32:47.440Z,60.50
2018-06-12T22:35:25.474Z,61.10
2018-06-12T22:38:02.790Z,60.30
2018-06-12T22:40:40.795Z,61.10
2018-06-12T22:43:18.292Z,61.40
2018-06-12T22:45:56.042Z,61.50
2018-06-12T22:48:32.082Z,62.20
2018-06-12T22:51:08.501Z,62.00
2018-06-12T22:53:46.293Z,62.40
2018-06-12T22:56:24.305Z,61.90
2018-06-12T22:59:00.295Z,62.20
2018-06-12T23:01:36.624Z,62.30
2018-06-12T23:04:13.044Z,62.40
2018-06-12T23:06:49.996Z,62.50
2018-06-12T23:09:26.660Z,63.30
2018-06-12T23:12:03.689Z,63.40
2018-06-12T23:14:40.097Z,64.00
2018-06-12T23:17:16.490Z,63.80
2018-06-12T23:20:09.334Z,64.60
2018-06-12T23:22:45.842Z,64.80
2018-06-12T23:25:22.130Z,64.80
2018-06-12T23:27:58.125Z,65.00
2018-06-12T23:30:34.443Z,65.10
2018-06-12T23:33:12.418Z,64.80
2018-06-12T23:35:49.388Z,63.50
2018-06-12T23:38:25.771Z,65.00
2018-06-12T23:43:39.591Z,64.70
2018-06-12T23:46:17.256Z,64.00
2018-06-12T23:48:53.655Z,64.10
2018-06-12T23:51:30.399Z,64.20
2018-06-12T23:54:06.717Z,64.10
2018-06-12T23:56:43.053Z,63.90
2018-06-12T23:59:22.145Z,63.50
